DLH865 ENGM-EDDF
Flight info
| Callsign | DLH865 |
|---|---|
| Flight time | N/A |
| Altitude | 37000 |
| Route | VIPPA DCT RAXLU DCT RIMET T157 KERAX KERAX5D |
| Aircraft | A320/M-SDE2E3FGIJ1LORWXYZ/HB1 |
Departure
| Time | 2026-05-01 10:20 |
|---|---|
| Airport | Oslo-Gardermoen International Airport (ENGM) |
Arrival
| Time | N/A |
|---|---|
| Airport | Frankfurt Main Airport (EDDF) |
| Time | Latitude | Longitude | Altitude | Speed | Heading |
|---|---|---|---|---|---|
| 2026-05-01 09:50 | 60.19669 | 11.09981 | 680 ft | 0 kts | 106° |
| 2026-05-01 10:11 | 60.19673 | 11.09956 | 685 ft | 4 kts | 105° |
| 2026-05-01 10:11 | 60.19680 | 11.09904 | 685 ft | 4 kts | 103° |
| 2026-05-01 10:11 | 60.19685 | 11.09851 | 681 ft | 4 kts | 98° |
| 2026-05-01 10:11 | 60.19687 | 11.09797 | 681 ft | 4 kts | 84° |
| 2026-05-01 10:12 | 60.19680 | 11.09753 | 679 ft | 4 kts | 29° |
| 2026-05-01 10:12 | 60.19676 | 11.09748 | 681 ft | 0 kts | 16° |
| 2026-05-01 10:14 | 60.19690 | 11.09756 | 681 ft | 4 kts | 17° |
| 2026-05-01 10:14 | 60.19740 | 11.09787 | 685 ft | 11 kts | 15° |
| 2026-05-01 10:14 | 60.19828 | 11.09837 | 684 ft | 14 kts | 16° |
| 2026-05-01 10:14 | 60.19922 | 11.09890 | 682 ft | 14 kts | 15° |
| 2026-05-01 10:15 | 60.19970 | 11.09933 | 685 ft | 4 kts | 58° |
| 2026-05-01 10:15 | 60.19972 | 11.09986 | 685 ft | 7 kts | 94° |
| 2026-05-01 10:15 | 60.19955 | 11.10121 | 684 ft | 10 kts | 106° |
| 2026-05-01 10:15 | 60.19936 | 11.10257 | 681 ft | 11 kts | 106° |
| 2026-05-01 10:16 | 60.19912 | 11.10423 | 685 ft | 14 kts | 106° |
| 2026-05-01 10:16 | 60.19883 | 11.10621 | 684 ft | 16 kts | 105° |
| 2026-05-01 10:16 | 60.19819 | 11.11071 | 682 ft | 16 kts | 107° |
| 2026-05-01 10:17 | 60.19789 | 11.11287 | 681 ft | 14 kts | 105° |
| 2026-05-01 10:17 | 60.19728 | 11.11581 | 683 ft | 10 kts | 105° |
| 2026-05-01 10:17 | 60.19711 | 11.11704 | 683 ft | 9 kts | 105° |
| 2026-05-01 10:18 | 60.19672 | 11.11847 | 684 ft | 4 kts | 142° |
| 2026-05-01 10:18 | 60.19623 | 11.11908 | 684 ft | 12 kts | 148° |
| 2026-05-01 10:18 | 60.19554 | 11.11922 | 684 ft | 12 kts | 195° |
| 2026-05-01 10:19 | 60.19400 | 11.11833 | 683 ft | 52 kts | 196° |
| 2026-05-01 10:19 | 60.18824 | 11.11499 | 683 ft | 118 kts | 196° |
| 2026-05-01 10:19 | 60.17868 | 11.10946 | 752 ft | 161 kts | 195° |
| 2026-05-01 10:20 | 60.15705 | 11.09703 | 2235 ft | 169 kts | 198° |
| 2026-05-01 10:20 | 60.14503 | 11.09001 | 2664 ft | 191 kts | 198° |
| 2026-05-01 10:20 | 60.13135 | 11.08249 | 3063 ft | 218 kts | 193° |
| 2026-05-01 10:20 | 60.11528 | 11.07803 | 3530 ft | 248 kts | 191° |
| 2026-05-01 10:21 | 60.09764 | 11.07407 | 4326 ft | 259 kts | 190° |
| 2026-05-01 10:21 | 60.06127 | 11.06642 | 6409 ft | 264 kts | 194° |
| 2026-05-01 10:21 | 60.04380 | 11.05606 | 7361 ft | 263 kts | 204° |
| 2026-05-01 10:22 | 60.00909 | 11.03113 | 9323 ft | 268 kts | 204° |
| 2026-05-01 10:22 | 59.97315 | 11.00493 | 10726 ft | 291 kts | 205° |
| 2026-05-01 10:23 | 59.95378 | 10.99069 | 11181 ft | 308 kts | 205° |
| 2026-05-01 10:23 | 59.91280 | 10.96101 | 12779 ft | 318 kts | 205° |
| 2026-05-01 10:23 | 59.89190 | 10.94597 | 13632 ft | 321 kts | 206° |
| 2026-05-01 10:24 | 59.84951 | 10.91559 | 15125 ft | 327 kts | 205° |
| 2026-05-01 10:24 | 59.80691 | 10.88516 | 16573 ft | 332 kts | 206° |
| 2026-05-01 10:25 | 59.76385 | 10.85441 | 17965 ft | 337 kts | 206° |
| 2026-05-01 10:25 | 59.72015 | 10.82317 | 19225 ft | 343 kts | 205° |
| 2026-05-01 10:26 | 59.69754 | 10.80706 | 19805 ft | 347 kts | 205° |
| 2026-05-01 10:26 | 59.67473 | 10.79086 | 20388 ft | 350 kts | 205° |
| 2026-05-01 10:26 | 59.62833 | 10.75797 | 21528 ft | 358 kts | 205° |
| 2026-05-01 10:27 | 59.58096 | 10.72453 | 22618 ft | 365 kts | 205° |
| 2026-05-01 10:27 | 59.53208 | 10.69343 | 23684 ft | 377 kts | 196° |
| 2026-05-01 10:28 | 59.50609 | 10.68429 | 24158 ft | 381 kts | 195° |
| 2026-05-01 10:28 | 59.45351 | 10.66563 | 25043 ft | 387 kts | 195° |
| 2026-05-01 10:28 | 59.42690 | 10.65607 | 25438 ft | 390 kts | 195° |
| 2026-05-01 10:29 | 59.37306 | 10.63689 | 26287 ft | 396 kts | 195° |
| 2026-05-01 10:29 | 59.34623 | 10.62734 | 26704 ft | 398 kts | 195° |
| 2026-05-01 10:30 | 59.29136 | 10.60783 | 27503 ft | 403 kts | 195° |
| 2026-05-01 10:30 | 59.23575 | 10.58818 | 28315 ft | 408 kts | 195° |
| 2026-05-01 10:31 | 59.17949 | 10.56828 | 29104 ft | 414 kts | 194° |
| 2026-05-01 10:31 | 59.12245 | 10.54823 | 29842 ft | 419 kts | 194° |
| 2026-05-01 10:32 | 59.06693 | 10.51592 | 30544 ft | 416 kts | 210° |
| 2026-05-01 10:32 | 59.04242 | 10.48635 | 30841 ft | 414 kts | 220° |
| 2026-05-01 10:32 | 59.00369 | 10.40481 | 31435 ft | 412 kts | 238° |
| 2026-05-01 10:33 | 58.97034 | 10.31386 | 32058 ft | 417 kts | 229° |
| 2026-05-01 10:33 | 58.92265 | 10.24980 | 32877 ft | 424 kts | 205° |
| 2026-05-01 10:34 | 58.89419 | 10.23356 | 33235 ft | 430 kts | 193° |
| 2026-05-01 10:34 | 58.86425 | 10.22926 | 33592 ft | 435 kts | 183° |
| 2026-05-01 10:34 | 58.83398 | 10.22973 | 33983 ft | 435 kts | 183° |
| 2026-05-01 10:35 | 58.77359 | 10.23079 | 34713 ft | 433 kts | 183° |
| 2026-05-01 10:35 | 58.74346 | 10.23121 | 35042 ft | 432 kts | 183° |
| 2026-05-01 10:35 | 58.71341 | 10.23153 | 35368 ft | 432 kts | 184° |
| 2026-05-01 10:35 | 58.68338 | 10.23179 | 35679 ft | 431 kts | 184° |
| 2026-05-01 10:36 | 58.62344 | 10.23223 | 36278 ft | 430 kts | 183° |
| 2026-05-01 10:36 | 58.59351 | 10.23252 | 36558 ft | 430 kts | 183° |
| 2026-05-01 10:36 | 58.56364 | 10.23292 | 36842 ft | 429 kts | 183° |
| 2026-05-01 10:37 | 58.53377 | 10.23335 | 37120 ft | 429 kts | 183° |
| 2026-05-01 10:37 | 58.47462 | 10.23410 | 37308 ft | 426 kts | 183° |
| 2026-05-01 10:37 | 58.44504 | 10.23447 | 37303 ft | 425 kts | 183° |
| 2026-05-01 10:38 | 58.38601 | 10.23507 | 37315 ft | 424 kts | 183° |
| 2026-05-01 10:38 | 58.32701 | 10.23576 | 37315 ft | 424 kts | 183° |
| 2026-05-01 10:39 | 58.26803 | 10.23647 | 37326 ft | 424 kts | 183° |
| 2026-05-01 10:39 | 58.20908 | 10.23720 | 37324 ft | 424 kts | 183° |
| 2026-05-01 10:40 | 58.15014 | 10.23789 | 37336 ft | 424 kts | 183° |
| 2026-05-01 10:40 | 58.09118 | 10.23852 | 37335 ft | 424 kts | 183° |
| 2026-05-01 10:41 | 58.03224 | 10.23917 | 37328 ft | 424 kts | 183° |
| 2026-05-01 10:42 | 57.94383 | 10.24032 | 37342 ft | 424 kts | 182° |
| 2026-05-01 10:42 | 57.88487 | 10.24096 | 37345 ft | 424 kts | 183° |
| 2026-05-01 10:43 | 57.82591 | 10.24158 | 37351 ft | 424 kts | 182° |
| 2026-05-01 10:43 | 57.76733 | 10.24222 | 37331 ft | 424 kts | 182° |
| 2026-05-01 10:44 | 57.70834 | 10.24285 | 37346 ft | 424 kts | 182° |
| 2026-05-01 10:44 | 57.64929 | 10.24348 | 37350 ft | 424 kts | 182° |
| 2026-05-01 10:45 | 57.59021 | 10.24422 | 37359 ft | 425 kts | 182° |
| 2026-05-01 10:45 | 57.53110 | 10.24501 | 37361 ft | 425 kts | 182° |
| 2026-05-01 10:46 | 57.47223 | 10.24570 | 37356 ft | 425 kts | 181° |
| 2026-05-01 10:46 | 57.41305 | 10.24629 | 37359 ft | 425 kts | 181° |
| 2026-05-01 10:47 | 57.35384 | 10.24683 | 37363 ft | 426 kts | 181° |
| 2026-05-01 10:47 | 57.29460 | 10.24740 | 37363 ft | 426 kts | 181° |
| 2026-05-01 10:48 | 57.23533 | 10.24793 | 37370 ft | 426 kts | 181° |
| 2026-05-01 10:48 | 57.17605 | 10.24851 | 37364 ft | 426 kts | 181° |
| 2026-05-01 10:49 | 57.11678 | 10.24923 | 37362 ft | 426 kts | 181° |
| 2026-05-01 10:49 | 57.05746 | 10.24996 | 37371 ft | 426 kts | 181° |
| 2026-05-01 10:50 | 56.99856 | 10.25051 | 37372 ft | 426 kts | 181° |
| 2026-05-01 10:50 | 56.93925 | 10.25110 | 37365 ft | 426 kts | 180° |
| 2026-05-01 10:51 | 56.87991 | 10.25182 | 37365 ft | 427 kts | 180° |
| 2026-05-01 10:51 | 56.82047 | 10.25260 | 37360 ft | 427 kts | 180° |
| 2026-05-01 10:52 | 56.76103 | 10.25324 | 37367 ft | 427 kts | 180° |
| 2026-05-01 10:52 | 56.70150 | 10.25385 | 37374 ft | 428 kts | 180° |
| 2026-05-01 10:53 | 56.64199 | 10.25439 | 37364 ft | 428 kts | 180° |
| 2026-05-01 10:53 | 56.58238 | 10.25502 | 37364 ft | 429 kts | 180° |
| 2026-05-01 10:54 | 56.52270 | 10.25564 | 37378 ft | 429 kts | 180° |
| 2026-05-01 10:54 | 56.46301 | 10.25622 | 37378 ft | 429 kts | 180° |
| 2026-05-01 10:55 | 56.40330 | 10.25679 | 37377 ft | 429 kts | 180° |
| 2026-05-01 10:55 | 56.35367 | 10.25731 | 37376 ft | 429 kts | 180° |
| 2026-05-01 10:56 | 56.28417 | 10.25811 | 37376 ft | 430 kts | 180° |
| 2026-05-01 10:56 | 56.22430 | 10.25867 | 37379 ft | 430 kts | 180° |
| 2026-05-01 10:57 | 56.17416 | 10.25913 | 37389 ft | 430 kts | 180° |
| 2026-05-01 10:57 | 56.11465 | 10.25974 | 37386 ft | 431 kts | 180° |
| 2026-05-01 10:58 | 56.05474 | 10.26038 | 37385 ft | 431 kts | 180° |
| 2026-05-01 10:58 | 55.99480 | 10.26102 | 37396 ft | 431 kts | 180° |
| 2026-05-01 10:59 | 55.93477 | 10.26165 | 37393 ft | 431 kts | 180° |
| 2026-05-01 10:59 | 55.87473 | 10.26225 | 37405 ft | 431 kts | 180° |
| 2026-05-01 11:00 | 55.81479 | 10.26285 | 37412 ft | 430 kts | 180° |
| 2026-05-01 11:00 | 55.75502 | 10.26351 | 37418 ft | 430 kts | 180° |
| 2026-05-01 11:01 | 55.69530 | 10.26404 | 37417 ft | 429 kts | 180° |
| 2026-05-01 11:01 | 55.63564 | 10.26463 | 37412 ft | 429 kts | 180° |
| 2026-05-01 11:02 | 55.57599 | 10.26531 | 37408 ft | 429 kts | 180° |
| 2026-05-01 11:02 | 55.51641 | 10.26590 | 37413 ft | 428 kts | 180° |
| 2026-05-01 11:03 | 55.45679 | 10.26650 | 37411 ft | 428 kts | 180° |
| 2026-05-01 11:03 | 55.39720 | 10.26709 | 37410 ft | 428 kts | 180° |
| 2026-05-01 11:04 | 55.33765 | 10.26769 | 37407 ft | 428 kts | 180° |
| 2026-05-01 11:04 | 55.27809 | 10.26822 | 37409 ft | 428 kts | 180° |
| 2026-05-01 11:05 | 55.21854 | 10.26874 | 37407 ft | 428 kts | 180° |
| 2026-05-01 11:05 | 55.15898 | 10.26931 | 37413 ft | 428 kts | 180° |
| 2026-05-01 11:06 | 55.09985 | 10.26995 | 37416 ft | 428 kts | 180° |
| 2026-05-01 11:06 | 55.04032 | 10.27052 | 37412 ft | 428 kts | 179° |
| 2026-05-01 11:07 | 54.95105 | 10.27137 | 37411 ft | 428 kts | 179° |
| 2026-05-01 11:07 | 54.89156 | 10.27191 | 37415 ft | 428 kts | 179° |
| 2026-05-01 11:08 | 54.83207 | 10.27249 | 37425 ft | 427 kts | 179° |
| 2026-05-01 11:09 | 54.74285 | 10.27329 | 37421 ft | 428 kts | 179° |
| 2026-05-01 11:09 | 54.68333 | 10.27366 | 37424 ft | 428 kts | 180° |
| 2026-05-01 11:10 | 54.59406 | 10.27189 | 37418 ft | 428 kts | 180° |
| 2026-05-01 11:10 | 54.53491 | 10.27057 | 37418 ft | 428 kts | 180° |
| 2026-05-01 11:11 | 54.47577 | 10.26947 | 37425 ft | 428 kts | 180° |
| 2026-05-01 11:11 | 54.41625 | 10.26842 | 37429 ft | 428 kts | 180° |
| 2026-05-01 11:12 | 54.35674 | 10.26742 | 37427 ft | 428 kts | 180° |
| 2026-05-01 11:12 | 54.29719 | 10.26648 | 37423 ft | 428 kts | 180° |
| 2026-05-01 11:13 | 54.23769 | 10.26554 | 37425 ft | 428 kts | 180° |
| 2026-05-01 11:13 | 54.17930 | 10.26451 | 37423 ft | 428 kts | 180° |
| 2026-05-01 11:14 | 54.11872 | 10.26343 | 37415 ft | 428 kts | 180° |
| 2026-05-01 11:14 | 54.05921 | 10.26247 | 37416 ft | 428 kts | 180° |
| 2026-05-01 11:15 | 53.99972 | 10.26151 | 37413 ft | 428 kts | 180° |
| 2026-05-01 11:15 | 53.94022 | 10.26055 | 37414 ft | 428 kts | 180° |
| 2026-05-01 11:16 | 53.88070 | 10.25951 | 37409 ft | 428 kts | 180° |
| 2026-05-01 11:16 | 53.82122 | 10.25848 | 37409 ft | 428 kts | 180° |
| 2026-05-01 11:17 | 53.76174 | 10.25747 | 37404 ft | 428 kts | 180° |
| 2026-05-01 11:17 | 53.70285 | 10.25650 | 37403 ft | 427 kts | 180° |
| 2026-05-01 11:18 | 53.64295 | 10.25558 | 37402 ft | 427 kts | 180° |
| 2026-05-01 11:18 | 53.58385 | 10.25451 | 37403 ft | 427 kts | 180° |
| 2026-05-01 11:19 | 53.52440 | 10.25348 | 37401 ft | 427 kts | 180° |
| 2026-05-01 11:19 | 53.46491 | 10.25258 | 37402 ft | 428 kts | 180° |
| 2026-05-01 11:20 | 53.40542 | 10.25167 | 37404 ft | 428 kts | 180° |
| 2026-05-01 11:20 | 53.34588 | 10.25066 | 37403 ft | 428 kts | 180° |
| 2026-05-01 11:21 | 53.28636 | 10.24965 | 37398 ft | 428 kts | 180° |
| 2026-05-01 11:21 | 53.22683 | 10.24880 | 37396 ft | 428 kts | 180° |
| 2026-05-01 11:22 | 53.16725 | 10.24781 | 37404 ft | 428 kts | 180° |
| 2026-05-01 11:22 | 53.10765 | 10.24677 | 37401 ft | 428 kts | 180° |
| 2026-05-01 11:23 | 53.04805 | 10.24586 | 37404 ft | 428 kts | 180° |
| 2026-05-01 11:23 | 52.98887 | 10.24503 | 37409 ft | 420 kts | 180° |
| 2026-05-01 11:24 | 52.93087 | 10.24414 | 37409 ft | 416 kts | 180° |
| 2026-05-01 11:25 | 52.84417 | 10.24268 | 37408 ft | 415 kts | 180° |
| 2026-05-01 11:25 | 52.75753 | 10.24128 | 37408 ft | 415 kts | 180° |
| 2026-05-01 11:26 | 52.67082 | 10.23980 | 37404 ft | 415 kts | 180° |
| 2026-05-01 11:27 | 52.61305 | 10.23898 | 37404 ft | 415 kts | 180° |
| 2026-05-01 11:27 | 52.55535 | 10.23808 | 37402 ft | 415 kts | 180° |